Time;durP1;ratioP1;P1;durP2;ratioP2;P2;SDS_P1;SDS_P2;PMS_P1;PMS_P2;Temp;Humidity;BMP_temperature;BMP_pressure;BME280_temperature;BME280_humidity;BME280_pressure;Samples;Min_cycle;Max_cycle;Signal;HPM_P1;HPM_P2
2022/01/27 00:02:56;;;;;;;38.20;16.63;;;-0.10;99.90;;;;;;5029254;28;20149;-65
2022/01/27 00:05:27;;;;;;;35.17;16.42;;;-0.20;99.90;;;;;;5026707;28;20463;-66
2022/01/27 00:08:11;;;;;;;32.63;15.48;;;-0.20;99.90;;;;;;5028328;28;20153;-66
2022/01/27 00:13:14;;;;;;;35.17;16.98;;;-0.30;99.90;;;;;;5028624;28;20119;-66
2022/01/27 00:15:44;;;;;;;34.85;16.48;;;-0.30;99.90;;;;;;5027810;28;20045;-66
2022/01/27 00:18:15;;;;;;;35.97;16.65;;;-0.30;99.90;;;;;;5029178;28;20044;-64
2022/01/27 00:20:45;;;;;;;33.97;18.05;;;-0.30;99.90;;;;;;5028235;28;20290;-65
2022/01/27 00:23:12;;;;;;;34.70;17.55;;;-0.40;99.90;;;;;;5028419;28;20053;-66
2022/01/27 00:25:40;;;;;;;35.35;15.70;;;-0.30;99.90;;;;;;5029791;28;20049;-66
2022/01/27 00:28:07;;;;;;;32.03;16.08;;;-0.30;99.90;;;;;;5032104;28;20072;-65
2022/01/27 00:30:37;;;;;;;33.97;17.17;;;-0.30;99.90;;;;;;5031619;28;20080;-65
2022/01/27 00:33:05;;;;;;;35.10;16.95;;;-0.30;99.90;;;;;;5024939;28;20084;-64
2022/01/27 00:35:33;;;;;;;33.97;16.65;;;-0.40;99.90;;;;;;5025994;28;20504;-65
2022/01/27 00:38:01;;;;;;;34.00;16.92;;;-0.40;99.90;;;;;;5031604;28;20045;-64
2022/01/27 00:40:29;;;;;;;33.58;17.33;;;-0.50;99.90;;;;;;5031701;28;20051;-65
2022/01/27 00:42:56;;;;;;;35.80;17.77;;;-0.50;99.90;;;;;;5031727;28;20492;-65
2022/01/27 00:45:25;;;;;;;34.42;17.48;;;-0.40;99.90;;;;;;5031606;28;20531;-65
2022/01/27 00:47:52;;;;;;;37.30;18.88;;;-0.40;99.90;;;;;;5031192;28;20467;-64
2022/01/27 00:50:20;;;;;;;37.70;18.42;;;-0.40;99.90;;;;;;5031475;28;20053;-64
2022/01/27 00:52:51;;;;;;;38.85;18.20;;;-0.40;99.90;;;;;;5031489;28;20046;-65
2022/01/27 00:55:21;;;;;;;37.35;18.60;;;-0.50;99.90;;;;;;5034500;28;20053;-65
2022/01/27 01:00:26;;;;;;;34.17;17.25;;;-0.50;99.90;;;;;;5031877;28;20049;-65
2022/01/27 01:03:01;;;;;;;36.78;18.20;;;-0.40;99.90;;;;;;5031548;28;20053;-65
2022/01/27 01:08:05;;;;;;;36.78;18.38;;;-0.40;99.90;;;;;;5040859;28;20060;-65
2022/01/27 01:15:54;;;;;;;36.60;18.45;;;-0.50;99.90;;;;;;5030995;28;20522;-65
2022/01/27 01:32:12;;;;;;;39.65;19.65;;;-0.50;99.90;;;;;;5017120;28;20053;-66
2022/01/27 01:34:45;;;;;;;38.90;18.77;;;-0.50;99.90;;;;;;5028750;28;20099;-65
2022/01/27 01:37:17;;;;;;;42.33;18.00;;;-0.50;99.90;;;;;;5026449;28;20138;-65
2022/01/27 01:39:45;;;;;;;44.50;20.08;;;-0.50;99.90;;;;;;5017395;28;20046;-65
2022/01/27 01:42:13;;;;;;;38.00;18.20;;;-0.40;99.90;;;;;;5007358;28;20096;-66
2022/01/27 01:44:41;;;;;;;39.65;18.55;;;-0.40;99.90;;;;;;5023282;28;20047;-65
2022/01/27 01:47:09;;;;;;;39.15;18.55;;;-0.40;99.90;;;;;;5014464;28;20555;-64
2022/01/27 01:49:36;;;;;;;43.45;19.75;;;-0.40;99.90;;;;;;4991544;28;21924;-64
2022/01/27 01:52:07;;;;;;;44.63;20.33;;;-0.40;99.90;;;;;;5001329;28;20046;-65
2022/01/27 01:54:35;;;;;;;44.55;19.92;;;-0.40;99.90;;;;;;5004622;28;20054;-64
2022/01/27 01:57:02;;;;;;;40.60;18.48;;;-0.40;99.90;;;;;;5012324;28;20064;-66
2022/01/27 01:59:30;;;;;;;39.70;17.83;;;-0.40;99.90;;;;;;5011582;28;20061;-64
2022/01/27 02:01:58;;;;;;;36.50;17.40;;;-0.40;99.90;;;;;;5014657;28;20060;-65
2022/01/27 02:04:25;;;;;;;37.72;17.17;;;-0.40;99.90;;;;;;4991410;28;20510;-65
2022/01/27 02:06:57;;;;;;;41.53;18.02;;;-0.40;99.90;;;;;;5010099;28;20060;-65
2022/01/27 02:17:59;;;;;;;38.38;17.08;;;-0.50;99.90;;;;;;5030096;28;20400;-64
2022/01/27 02:20:33;;;;;;;39.10;18.77;;;-0.50;99.90;;;;;;5040071;28;20041;-64
2022/01/27 02:23:02;;;;;;;40.08;19.50;;;-0.50;99.90;;;;;;5043223;28;20129;-66
2022/01/27 02:25:30;;;;;;;42.72;18.92;;;-0.50;99.90;;;;;;5042245;28;20078;-65
2022/01/27 02:27:57;;;;;;;40.10;18.85;;;-0.40;99.90;;;;;;5042161;28;20549;-65
2022/01/27 02:30:25;;;;;;;37.17;19.77;;;-0.40;99.90;;;;;;5045147;28;20048;-65
2022/01/27 02:32:54;;;;;;;43.25;19.23;;;-0.30;99.90;;;;;;5039085;28;20136;-64
2022/01/27 02:35:26;;;;;;;39.67;18.50;;;-0.30;99.90;;;;;;5046070;28;20052;-65
2022/01/27 02:37:53;;;;;;;43.42;19.15;;;-0.40;99.90;;;;;;5040993;28;20051;-65
2022/01/27 02:40:34;;;;;;;43.85;20.02;;;-0.40;99.90;;;;;;5044966;28;20486;-66
2022/01/27 02:43:03;;;;;;;46.30;19.58;;;-0.40;99.90;;;;;;5032821;28;20030;-67
2022/01/27 02:45:36;;;;;;;41.40;17.90;;;-0.40;99.90;;;;;;5043988;28;20045;-65
2022/01/27 02:48:04;;;;;;;40.33;17.92;;;-0.30;99.90;;;;;;5033822;28;20041;-66
2022/01/27 02:50:31;;;;;;;37.67;18.05;;;-0.40;99.90;;;;;;5028619;28;20064;-64
2022/01/27 02:52:58;;;;;;;41.72;17.88;;;-0.40;99.90;;;;;;5032612;28;20053;-64
2022/01/27 02:55:25;;;;;;;37.72;17.45;;;-0.50;99.90;;;;;;5032717;28;20053;-65
2022/01/27 02:57:55;;;;;;;41.97;18.27;;;-0.50;99.90;;;;;;5038094;28;20041;-64
2022/01/27 03:00:27;;;;;;;40.30;18.27;;;-0.50;99.90;;;;;;5028500;28;20112;-64
2022/01/27 03:02:54;;;;;;;41.67;18.38;;;-0.60;99.90;;;;;;5039839;28;20045;-66
2022/01/27 03:05:21;;;;;;;41.13;18.75;;;-0.60;99.90;;;;;;5042756;28;20053;-65
2022/01/27 03:07:49;;;;;;;38.85;19.85;;;-0.60;99.90;;;;;;5028563;28;20071;-64
2022/01/27 03:10:17;;;;;;;44.60;19.33;;;-0.50;99.90;;;;;;5013868;28;20080;-64
2022/01/27 03:12:46;;;;;;;48.78;20.13;;;-0.50;99.90;;;;;;5015477;28;20420;-64
2022/01/27 03:15:13;;;;;;;43.70;18.58;;;-0.60;99.90;;;;;;5028606;28;20045;-64
2022/01/27 03:17:41;;;;;;;46.25;18.85;;;-0.60;99.90;;;;;;5042100;28;20041;-64
2022/01/27 03:20:09;;;;;;;42.08;19.45;;;-0.60;99.90;;;;;;5014259;28;20320;-64
2022/01/27 03:22:37;;;;;;;41.28;17.73;;;-0.60;99.90;;;;;;5028611;28;20048;-65
2022/01/27 03:25:04;;;;;;;42.45;18.42;;;-0.60;99.90;;;;;;5028307;28;20075;-65
2022/01/27 03:27:33;;;;;;;40.17;19.17;;;-0.60;99.90;;;;;;5028007;28;20045;-64
2022/01/27 03:30:00;;;;;;;40.63;18.13;;;-0.60;99.90;;;;;;5026827;28;20041;-64
2022/01/27 03:32:28;;;;;;;41.25;18.55;;;-0.70;99.90;;;;;;5027592;28;20049;-64
2022/01/27 03:34:55;;;;;;;41.13;18.42;;;-0.80;99.90;;;;;;5025242;28;20531;-64
2022/01/27 03:37:22;;;;;;;36.50;17.52;;;-0.80;99.90;;;;;;5041804;28;20172;-65
2022/01/27 03:39:49;;;;;;;37.17;17.50;;;-0.80;99.90;;;;;;5027952;28;20125;-63
2022/01/27 03:42:17;;;;;;;38.90;18.35;;;-0.80;99.90;;;;;;5028543;28;20045;-64
2022/01/27 03:44:44;;;;;;;42.53;18.80;;;-0.80;99.90;;;;;;5026845;28;20415;-64
2022/01/27 03:47:11;;;;;;;42.40;18.15;;;-0.80;99.90;;;;;;5027560;28;20057;-64
2022/01/27 03:49:39;;;;;;;40.95;18.80;;;-0.70;99.90;;;;;;5027437;28;20056;-64
2022/01/27 03:52:06;;;;;;;43.05;18.48;;;-0.70;99.90;;;;;;5039147;28;20053;-64
2022/01/27 03:54:34;;;;;;;44.60;19.45;;;-0.60;99.90;;;;;;5028181;28;20053;-66
2022/01/27 03:57:01;;;;;;;40.75;19.25;;;-0.70;99.90;;;;;;5028358;28;20139;-65
2022/01/27 03:59:29;;;;;;;42.40;20.08;;;-0.60;99.90;;;;;;5016720;28;20431;-65
2022/01/27 04:01:57;;;;;;;43.40;20.50;;;-0.70;99.90;;;;;;5027066;28;20370;-66
2022/01/27 04:04:26;;;;;;;42.88;19.98;;;-0.70;99.90;;;;;;5040186;28;20041;-64
2022/01/27 04:06:54;;;;;;;44.42;19.45;;;-0.70;99.90;;;;;;5040680;28;20449;-64
2022/01/27 04:09:22;;;;;;;43.40;18.15;;;-0.80;99.90;;;;;;5036891;28;20136;-65
2022/01/27 04:11:50;;;;;;;45.13;19.35;;;-0.80;99.90;;;;;;5031970;28;20396;-65
2022/01/27 04:14:17;;;;;;;40.28;18.60;;;-0.80;99.90;;;;;;5038085;28;20150;-65
2022/01/27 04:16:44;;;;;;;38.65;18.60;;;-0.80;99.90;;;;;;5041690;28;20512;-65
2022/01/27 04:19:11;;;;;;;43.00;19.83;;;-0.90;99.90;;;;;;5034672;28;20546;-64
2022/01/27 04:21:39;;;;;;;37.97;18.70;;;-1.00;99.90;;;;;;5041244;28;20041;-66
2022/01/27 04:24:06;;;;;;;38.95;16.90;;;-0.90;99.90;;;;;;5035344;28;20181;-65
2022/01/27 04:26:43;;;;;;;38.17;16.42;;;-0.90;99.90;;;;;;5032717;28;20056;-65
2022/01/27 04:29:11;;;;;;;36.28;17.73;;;-0.90;99.90;;;;;;5028040;28;20389;-64
2022/01/27 04:31:41;;;;;;;32.97;16.75;;;-0.90;99.90;;;;;;5025168;28;20496;-65
2022/01/27 04:34:09;;;;;;;39.80;18.00;;;-0.90;99.90;;;;;;5025297;28;20076;-64
2022/01/27 04:36:37;;;;;;;33.08;15.68;;;-0.90;99.90;;;;;;5027694;28;20129;-65
2022/01/27 04:46:45;;;;;;;33.70;15.93;;;-1.10;99.90;;;;;;5031941;28;20061;-66
2022/01/27 04:49:13;;;;;;;38.28;16.83;;;-1.00;99.90;;;;;;5028645;28;20103;-66
2022/01/27 04:51:40;;;;;;;33.15;16.30;;;-1.00;99.90;;;;;;5021248;28;20095;-65
2022/01/27 04:56:38;;;;;;;38.53;17.50;;;-1.10;99.90;;;;;;5042091;28;20416;-66
2022/01/27 04:59:13;;;;;;;36.83;17.27;;;-1.10;99.90;;;;;;5039122;28;20446;-65
2022/01/27 05:01:55;;;;;;;37.28;17.42;;;-1.10;99.90;;;;;;5026144;28;20042;-66
2022/01/27 05:04:29;;;;;;;33.67;17.02;;;-1.10;99.90;;;;;;5035800;28;20492;-65
2022/01/27 05:06:57;;;;;;;34.08;16.83;;;-1.10;99.90;;;;;;5028730;28;20060;-65
2022/01/27 05:09:24;;;;;;;33.17;16.35;;;-1.20;99.90;;;;;;5027719;28;20038;-65
2022/01/27 05:12:08;;;;;;;35.20;16.42;;;-1.30;99.90;;;;;;5031287;28;20538;-65
2022/01/27 05:14:35;;;;;;;35.20;15.30;;;-1.30;99.90;;;;;;5032782;28;20132;-65
2022/01/27 05:17:03;;;;;;;33.00;15.68;;;-1.40;99.90;;;;;;5020446;28;20134;-65
2022/01/27 05:19:30;;;;;;;35.08;15.85;;;-1.40;99.90;;;;;;5036314;28;20045;-65
2022/01/27 05:21:57;;;;;;;36.30;17.00;;;-1.40;99.90;;;;;;5046455;28;20357;-65
2022/01/27 05:24:24;;;;;;;35.95;15.93;;;-1.40;99.90;;;;;;5040458;28;20059;-66
2022/01/27 05:26:52;;;;;;;37.10;17.08;;;-1.40;99.90;;;;;;5035650;28;20568;-65
2022/01/27 05:29:19;;;;;;;34.42;16.27;;;-1.40;99.90;;;;;;5032343;28;20042;-64
2022/01/27 05:31:46;;;;;;;36.15;16.63;;;-1.30;99.90;;;;;;5031527;28;20091;-65
2022/01/27 05:34:14;;;;;;;32.90;16.08;;;-1.30;99.90;;;;;;5035640;28;20044;-65
2022/01/27 05:36:41;;;;;;;33.17;15.98;;;-1.40;99.90;;;;;;5028522;28;20127;-63
2022/01/27 05:39:08;;;;;;;29.95;15.60;;;-1.30;99.90;;;;;;5036175;28;20067;-65
2022/01/27 05:41:35;;;;;;;37.83;17.35;;;-1.30;99.90;;;;;;5032872;28;20408;-64
2022/01/27 05:44:03;;;;;;;30.95;15.68;;;-1.40;99.90;;;;;;5035968;28;20040;-64
2022/01/27 05:46:30;;;;;;;34.20;16.42;;;-1.30;99.90;;;;;;5037498;28;20049;-65
2022/01/27 05:48:58;;;;;;;40.03;19.13;;;-1.30;99.90;;;;;;5039067;28;20040;-64
2022/01/27 05:51:25;;;;;;;38.25;17.63;;;-1.30;99.90;;;;;;5028338;28;20075;-65
2022/01/27 05:53:52;;;;;;;44.13;19.27;;;-1.40;99.90;;;;;;5026508;28;20112;-66
2022/01/27 05:56:20;;;;;;;40.22;18.00;;;-1.40;99.90;;;;;;5026474;28;20044;-64
2022/01/27 05:58:47;;;;;;;39.17;18.00;;;-1.30;99.90;;;;;;5029024;28;20542;-64
2022/01/27 06:01:15;;;;;;;35.08;17.08;;;-1.30;99.90;;;;;;5030064;28;20045;-65
2022/01/27 06:03:42;;;;;;;38.72;17.65;;;-1.30;99.90;;;;;;5020038;28;20045;-66
2022/01/27 06:06:09;;;;;;;37.45;18.48;;;-1.30;99.90;;;;;;5030749;28;20456;-65
2022/01/27 06:08:36;;;;;;;39.40;18.23;;;-1.30;99.90;;;;;;5042329;28;20060;-66
2022/01/27 06:11:05;;;;;;;39.40;17.27;;;-1.30;99.90;;;;;;5030426;28;20033;-67
2022/01/27 06:13:32;;;;;;;34.35;17.13;;;-1.20;99.90;;;;;;5026143;28;20059;-66
2022/01/27 06:16:02;;;;;;;33.17;15.50;;;-1.20;99.90;;;;;;5030671;28;20475;-66
2022/01/27 06:18:30;;;;;;;37.58;16.42;;;-1.30;99.90;;;;;;5035901;28;20045;-65
2022/01/27 06:21:00;;;;;;;39.15;17.50;;;-1.30;99.90;;;;;;5033653;28;20504;-64
2022/01/27 06:23:27;;;;;;;36.60;17.98;;;-1.30;99.90;;;;;;5038386;28;20072;-66
2022/01/27 06:25:55;;;;;;;35.15;15.65;;;-1.40;99.90;;;;;;5028973;28;20043;-65
2022/01/27 06:28:22;;;;;;;40.38;17.98;;;-1.30;99.90;;;;;;5036441;28;20049;-65
2022/01/27 06:30:49;;;;;;;38.65;16.38;;;-1.40;99.90;;;;;;5032047;28;20522;-66
2022/01/27 06:33:17;;;;;;;32.38;15.40;;;-1.50;99.90;;;;;;5029682;28;20045;-67
2022/01/27 06:35:44;;;;;;;40.65;17.92;;;-1.40;99.90;;;;;;5029352;28;20665;-67
2022/01/27 06:38:12;;;;;;;40.15;18.02;;;-1.30;99.90;;;;;;5029274;28;20396;-65
2022/01/27 06:40:39;;;;;;;44.17;18.48;;;-1.30;99.90;;;;;;5029142;28;20515;-66
2022/01/27 06:43:07;;;;;;;45.17;19.20;;;-1.30;99.90;;;;;;5029224;28;20069;-66
2022/01/27 06:45:34;;;;;;;43.50;18.48;;;-1.30;99.90;;;;;;5021380;28;20049;-66
2022/01/27 06:48:02;;;;;;;41.83;18.25;;;-1.30;99.90;;;;;;5029797;28;20095;-66
2022/01/27 06:50:31;;;;;;;41.92;17.75;;;-1.30;99.90;;;;;;5025558;28;20068;-66
2022/01/27 06:52:59;;;;;;;41.70;19.08;;;-1.40;99.90;;;;;;5017791;28;20041;-66
2022/01/27 06:55:26;;;;;;;45.60;19.13;;;-1.30;99.90;;;;;;5028868;28;20076;-66
2022/01/27 06:57:54;;;;;;;41.38;19.00;;;-1.30;99.90;;;;;;5027955;28;20051;-65
2022/01/27 07:00:21;;;;;;;34.83;16.58;;;-1.30;99.90;;;;;;5030303;28;20136;-66
2022/01/27 07:02:48;;;;;;;37.13;17.63;;;-1.20;99.90;;;;;;5025167;28;20562;-65
2022/01/27 07:05:18;;;;;;;38.72;17.25;;;-1.30;99.90;;;;;;5034632;28;20064;-65
2022/01/27 07:07:45;;;;;;;44.40;20.10;;;-1.30;99.90;;;;;;5035195;28;20400;-66
2022/01/27 07:10:13;;;;;;;45.22;18.98;;;-1.30;99.90;;;;;;5025593;28;20146;-65
2022/01/27 07:12:42;;;;;;;42.60;18.38;;;-1.30;99.90;;;;;;5016153;28;20571;-64
2022/01/27 07:15:09;;;;;;;39.35;18.33;;;-1.30;99.90;;;;;;5041698;28;20045;-65
2022/01/27 07:17:37;;;;;;;43.78;18.15;;;-1.40;99.90;;;;;;5027509;28;20060;-66
2022/01/27 07:20:05;;;;;;;40.03;17.17;;;-1.30;99.90;;;;;;5028682;28;20645;-66
2022/01/27 07:22:35;;;;;;;38.95;18.10;;;-1.30;99.90;;;;;;5035761;28;20049;-66
2022/01/27 07:25:05;;;;;;;37.85;17.02;;;-1.30;99.90;;;;;;5017390;28;20532;-67
2022/01/27 07:27:34;;;;;;;44.95;19.10;;;-1.30;99.90;;;;;;5027489;28;20055;-66
2022/01/27 07:30:04;;;;;;;43.67;17.90;;;-1.30;99.90;;;;;;5026248;28;20068;-65
2022/01/27 07:32:32;;;;;;;42.60;19.00;;;-1.30;99.90;;;;;;5025613;28;20404;-64
2022/01/27 07:35:01;;;;;;;46.55;19.50;;;-1.20;99.90;;;;;;5021835;28;20049;-66
2022/01/27 07:37:28;;;;;;;44.22;18.85;;;-1.10;99.90;;;;;;5019269;28;20383;-66
2022/01/27 07:39:55;;;;;;;47.10;18.63;;;-1.10;99.90;;;;;;5028001;28;20504;-66
2022/01/27 07:42:22;;;;;;;48.28;19.27;;;-1.20;99.90;;;;;;5028027;28;20037;-66
2022/01/27 07:44:50;;;;;;;47.28;19.63;;;-1.20;99.90;;;;;;5032599;28;20136;-67
2022/01/27 07:47:17;;;;;;;49.88;19.55;;;-1.20;99.90;;;;;;5025208;28;20042;-66
2022/01/27 07:49:44;;;;;;;51.03;20.13;;;-1.20;99.90;;;;;;5027847;28;20045;-66
2022/01/27 07:52:12;;;;;;;49.83;20.38;;;-1.20;99.90;;;;;;5027334;28;20573;-65
2022/01/27 07:54:40;;;;;;;46.20;20.10;;;-1.20;99.90;;;;;;5024972;28;20037;-66
2022/01/27 07:57:07;;;;;;;46.30;20.63;;;-1.20;99.90;;;;;;5027028;28;20052;-65
2022/01/27 07:59:34;;;;;;;51.03;21.45;;;-1.10;99.90;;;;;;5028443;28;20053;-66
2022/01/27 08:02:02;;;;;;;48.40;20.17;;;-1.10;99.90;;;;;;5028068;28;20590;-67
2022/01/27 08:04:30;;;;;;;46.80;20.48;;;-1.10;99.90;;;;;;5027764;28;20132;-66
2022/01/27 08:06:57;;;;;;;51.28;20.70;;;-1.10;99.90;;;;;;5028023;28;20148;-65
2022/01/27 08:09:24;;;;;;;45.10;20.40;;;-1.10;99.90;;;;;;5039477;28;20567;-66
2022/01/27 08:11:52;;;;;;;54.47;21.45;;;-1.20;99.90;;;;;;5042418;28;20132;-63
2022/01/27 08:14:19;;;;;;;48.58;19.83;;;-1.20;99.90;;;;;;5035967;28;20072;-63
2022/01/27 08:16:46;;;;;;;49.28;20.33;;;-1.30;99.90;;;;;;5035759;28;20053;-64
2022/01/27 08:19:14;;;;;;;54.25;21.23;;;-1.30;99.90;;;;;;5041913;28;20041;-63
2022/01/27 08:21:41;;;;;;;51.25;21.70;;;-1.30;99.90;;;;;;5028398;28;20049;-64
2022/01/27 08:24:09;;;;;;;53.05;21.88;;;-1.30;99.90;;;;;;5026394;28;20045;-65
2022/01/27 08:26:41;;;;;;;51.38;21.25;;;-1.30;99.90;;;;;;5027886;28;20077;-63
2022/01/27 08:29:25;;;;;;;45.75;19.60;;;-1.30;99.90;;;;;;5041224;28;20131;-64
2022/01/27 08:32:17;;;;;;;46.22;18.88;;;-1.40;99.90;;;;;;5023447;28;20045;-64
2022/01/27 08:34:45;;;;;;;46.80;19.88;;;-1.40;99.90;;;;;;5022014;28;20048;-65
2022/01/27 08:37:18;;;;;;;47.65;19.92;;;-1.30;99.90;;;;;;5024962;28;20042;-66
2022/01/27 08:39:48;;;;;;;46.83;20.75;;;-1.30;99.90;;;;;;5034045;28;20044;-66
2022/01/27 08:42:16;;;;;;;44.78;19.45;;;-1.20;99.90;;;;;;5027278;28;20119;-65
2022/01/27 08:44:45;;;;;;;44.35;18.52;;;-1.20;99.90;;;;;;5020937;28;20059;-62
2022/01/27 08:47:12;;;;;;;48.05;19.17;;;-1.20;99.90;;;;;;5034904;28;20087;-65
2022/01/27 08:49:43;;;;;;;43.00;19.52;;;-1.30;99.90;;;;;;5035416;28;20042;-67
2022/01/27 08:52:10;;;;;;;39.08;17.08;;;-1.20;99.90;;;;;;5033346;28;20160;-68
2022/01/27 08:54:37;;;;;;;42.03;18.80;;;-1.30;99.90;;;;;;5036586;28;20124;-66
2022/01/27 08:57:05;;;;;;;40.88;19.05;;;-1.30;99.90;;;;;;5031300;28;20049;-66
2022/01/27 08:59:33;;;;;;;44.42;19.05;;;-1.40;99.90;;;;;;5030545;28;20039;-65
2022/01/27 09:02:01;;;;;;;40.13;18.52;;;-1.30;99.90;;;;;;5035590;28;20491;-66
2022/01/27 09:04:28;;;;;;;46.00;19.05;;;-1.20;99.90;;;;;;5037797;28;20057;-63
2022/01/27 09:06:55;;;;;;;40.80;18.48;;;-1.20;99.90;;;;;;5030452;28;20556;-65
2022/01/27 09:09:23;;;;;;;41.05;17.55;;;-1.20;99.90;;;;;;5030531;28;20060;-63
2022/01/27 09:11:51;;;;;;;35.72;16.83;;;-1.20;99.90;;;;;;5044779;28;20124;-65
2022/01/27 09:14:18;;;;;;;33.00;15.27;;;-1.20;99.90;;;;;;5020188;28;20080;-66
2022/01/27 09:16:46;;;;;;;29.45;13.95;;;-1.10;99.90;;;;;;5029842;28;20045;-64
2022/01/27 09:19:15;;;;;;;33.40;15.40;;;-1.20;99.90;;;;;;5030246;28;20137;-66
2022/01/27 09:21:45;;;;;;;31.45;14.57;;;-1.20;99.90;;;;;;5030730;28;20068;-66
2022/01/27 09:24:16;;;;;;;38.08;16.15;;;-1.30;99.90;;;;;;5031471;28;20041;-64
2022/01/27 09:29:12;;;;;;;33.25;13.63;;;-1.10;99.90;;;;;;5029235;28;20128;-67
2022/01/27 09:31:40;;;;;;;34.78;14.77;;;-1.10;99.90;;;;;;5031068;28;20071;-65
2022/01/27 09:34:11;;;;;;;29.52;13.90;;;-1.20;99.90;;;;;;5028960;28;20426;-65
2022/01/27 09:36:39;;;;;;;32.10;15.32;;;-1.20;99.90;;;;;;5031231;28;20049;-65
2022/01/27 09:39:06;;;;;;;36.67;15.02;;;-1.30;99.90;;;;;;5029321;28;20519;-67
2022/01/27 09:41:40;;;;;;;32.47;14.18;;;-1.20;99.90;;;;;;5032309;28;20041;-65
2022/01/27 09:44:11;;;;;;;32.08;14.35;;;-1.20;99.90;;;;;;5029990;28;20046;-66
2022/01/27 09:46:42;;;;;;;33.65;14.25;;;-1.20;99.90;;;;;;5030143;28;20204;-66
2022/01/27 09:49:16;;;;;;;33.92;15.30;;;-1.20;99.90;;;;;;5030181;28;20053;-66
2022/01/27 09:51:46;;;;;;;32.28;13.50;;;-1.10;99.90;;;;;;5017987;28;20052;-63
2022/01/27 09:54:15;;;;;;;35.03;14.65;;;-1.10;99.90;;;;;;5029044;28;20037;-65
2022/01/27 09:56:43;;;;;;;29.90;13.48;;;-1.00;99.90;;;;;;5031468;28;20517;-66
2022/01/27 09:59:15;;;;;;;35.55;13.82;;;-1.00;99.90;;;;;;5040747;28;20044;-66
2022/01/27 10:02:19;;;;;;;31.23;14.75;;;-1.00;99.90;;;;;;5035210;28;20049;-64
2022/01/27 10:04:57;;;;;;;38.10;14.77;;;-1.00;99.90;;;;;;5027983;28;20045;-66
2022/01/27 10:07:29;;;;;;;36.80;14.75;;;-0.90;99.90;;;;;;5038381;28;20492;-66
2022/01/27 10:09:58;;;;;;;;;;;-1.00;99.90;;;;;;5042052;28;20463;-66
2022/01/27 10:12:54;;;;;;;37.28;15.07;;;-0.90;99.90;;;;;;5033609;28;19925;-66
2022/01/27 10:15:24;;;;;;;34.40;15.48;;;-1.00;99.90;;;;;;5030035;28;20449;-66
2022/01/27 10:18:14;;;;;;;30.40;12.88;;;-0.90;99.90;;;;;;5031613;28;20051;-65
2022/01/27 10:20:48;;;;;;;32.97;14.20;;;-0.90;99.90;;;;;;5030820;28;20034;-66
2022/01/27 10:23:16;;;;;;;30.15;14.07;;;-0.90;99.90;;;;;;5030605;28;20492;-65
2022/01/27 10:25:52;;;;;;;34.97;14.60;;;-0.90;99.90;;;;;;5030029;28;20053;-66
2022/01/27 10:28:42;;;;;;;30.25;14.20;;;-1.00;99.90;;;;;;5039427;28;20053;-66
2022/01/27 10:31:20;;;;;;;28.80;12.82;;;-0.90;99.90;;;;;;5037695;28;20049;-66
2022/01/27 10:34:06;;;;;;;30.58;13.88;;;-0.90;99.90;;;;;;5036009;28;20041;-66
2022/01/27 10:36:36;;;;;;;30.50;13.32;;;-0.90;99.90;;;;;;5036259;28;20041;-66
2022/01/27 10:39:08;;;;;;;30.83;13.52;;;-0.80;99.90;;;;;;5041811;28;20044;-66
2022/01/27 10:41:36;;;;;;;;;;;-0.80;99.90;;;;;;5032817;28;20041;-65
2022/01/27 10:44:14;;;;;;;31.77;13.05;;;-0.70;99.90;;;;;;5041862;28;19924;-65
2022/01/27 10:47:13;;;;;;;31.60;13.68;;;-0.70;99.90;;;;;;5035425;28;20107;-65
2022/01/27 10:49:45;;;;;;;30.83;13.75;;;-0.70;99.90;;;;;;5021837;28;20042;-65
2022/01/27 10:52:46;;;;;;;33.63;13.45;;;-0.60;99.90;;;;;;5040558;28;20523;-65
2022/01/27 10:55:20;;;;;;;31.90;13.57;;;-0.50;99.90;;;;;;5022312;28;20037;-64
2022/01/27 10:57:50;;;;;;;28.27;12.95;;;-0.40;99.90;;;;;;5034186;28;20041;-66
2022/01/27 11:00:20;;;;;;;28.90;11.98;;;-0.40;99.90;;;;;;5039150;28;20041;-66
2022/01/27 11:02:51;;;;;;;31.63;12.18;;;-0.50;99.90;;;;;;5036655;28;20041;-67
2022/01/27 11:05:21;;;;;;;29.48;12.95;;;-0.40;99.90;;;;;;5034582;28;20491;-65
2022/01/27 11:07:50;;;;;;;28.90;12.32;;;-0.40;99.90;;;;;;5041540;28;20392;-66
2022/01/27 11:10:19;;;;;;;28.10;11.90;;;-0.40;99.90;;;;;;5034348;28;20412;-66
2022/01/27 11:12:49;;;;;;;26.17;11.10;;;-0.40;99.90;;;;;;5038057;28;20492;-66
2022/01/27 11:15:18;;;;;;;25.13;11.63;;;-0.30;99.90;;;;;;5032682;28;20075;-66
2022/01/27 11:17:48;;;;;;;29.20;11.77;;;-0.30;99.90;;;;;;5029834;28;20053;-69
2022/01/27 11:20:49;;;;;;;28.27;12.65;;;-0.20;99.90;;;;;;5030473;28;20041;-67
2022/01/27 11:24:03;;;;;;;26.23;11.05;;;-0.20;99.90;;;;;;5029235;28;20053;-66
2022/01/27 11:26:32;;;;;;;27.58;11.15;;;-0.10;99.90;;;;;;5027622;28;20515;-66
2022/01/27 11:29:02;;;;;;;26.92;11.73;;;-0.10;99.90;;;;;;5028553;28;20595;-66
2022/01/27 11:31:54;;;;;;;26.77;11.10;;;0.00;99.90;;;;;;5034090;28;20056;-66
2022/01/27 11:34:22;;;;;;;23.30;10.48;;;-0.10;99.90;;;;;;5031693;28;20041;-67
2022/01/27 11:37:05;;;;;;;23.58;11.10;;;0.00;99.90;;;;;;5036387;28;20049;-67
2022/01/27 11:40:01;;;;;;;24.17;10.98;;;0.00;99.90;;;;;;5029405;28;20057;-66
2022/01/27 11:42:54;;;;;;;28.73;11.93;;;0.10;99.90;;;;;;5031238;28;20037;-67
2022/01/27 11:45:24;;;;;;;23.10;10.88;;;0.10;99.90;;;;;;5035320;28;20064;-66
2022/01/27 11:48:00;;;;;;;27.20;11.45;;;0.10;99.90;;;;;;5036507;28;20052;-67
2022/01/27 11:50:49;;;;;;;20.52;9.43;;;0.10;99.90;;;;;;5036164;28;20053;-66
2022/01/27 11:53:36;;;;;;;25.20;10.80;;;0.10;99.90;;;;;;5033035;28;20060;-66
2022/01/27 11:56:08;;;;;;;25.85;11.18;;;0.10;99.90;;;;;;5038366;28;20049;-67
2022/01/27 11:59:05;;;;;;;23.90;11.07;;;0.10;99.90;;;;;;5032007;28;20041;-66
2022/01/27 12:01:37;;;;;;;23.13;9.32;;;0.20;99.90;;;;;;5016694;28;20046;-68
2022/01/27 12:04:05;;;;;;;23.55;10.52;;;0.20;99.90;;;;;;5014047;28;20038;-66
2022/01/27 12:06:39;;;;;;;25.27;10.48;;;0.10;99.90;;;;;;5025003;28;20077;-66
2022/01/27 12:11:50;;;;;;;25.63;11.35;;;0.30;99.90;;;;;;5042725;28;20046;-65
2022/01/27 12:14:26;;;;;;;24.48;10.85;;;0.30;99.90;;;;;;5027560;28;20107;-66
2022/01/27 12:17:09;;;;;;;24.55;10.48;;;0.40;99.90;;;;;;5035441;28;20500;-66
2022/01/27 12:20:01;;;;;;;20.10;9.52;;;0.50;99.90;;;;;;5025188;28;20049;-66
2022/01/27 12:22:45;;;;;;;23.02;9.85;;;0.60;99.90;;;;;;5030309;28;20067;-66
2022/01/27 12:25:13;;;;;;;22.38;9.98;;;0.60;99.90;;;;;;5031455;28;20033;-66
2022/01/27 12:27:48;;;;;;;23.45;9.55;;;0.70;99.90;;;;;;5023898;28;20041;-66
2022/01/27 12:30:37;;;;;;;22.02;9.77;;;0.70;99.90;;;;;;5037691;28;20088;-66
2022/01/27 12:33:04;;;;;;;24.42;9.55;;;0.60;99.90;;;;;;5023083;28;20041;-66
2022/01/27 12:35:31;;;;;;;22.80;9.88;;;0.80;99.90;;;;;;5032014;28;20057;-66
2022/01/27 12:38:00;;;;;;;18.48;8.88;;;0.80;99.90;;;;;;5042192;28;20045;-66
2022/01/27 12:40:33;;;;;;;21.23;9.23;;;0.80;99.90;;;;;;5032835;28;20124;-66
2022/01/27 12:43:07;;;;;;;22.88;9.52;;;0.80;99.90;;;;;;5031736;28;20418;-65
2022/01/27 12:45:36;;;;;;;26.08;9.75;;;0.80;99.90;;;;;;5033069;28;20041;-66
2022/01/27 12:48:12;;;;;;;23.38;10.80;;;0.80;99.90;;;;;;5034347;28;20500;-68
2022/01/27 12:50:40;;;;;;;19.00;8.93;;;0.80;99.90;;;;;;5024721;28;20075;-66
2022/01/27 12:53:12;;;;;;;16.83;8.32;;;0.70;99.90;;;;;;5031515;28;20052;-66
2022/01/27 12:55:42;;;;;;;19.25;8.48;;;0.70;99.90;;;;;;5023633;28;20054;-67
2022/01/27 12:58:19;;;;;;;21.40;9.55;;;0.70;99.90;;;;;;5032261;28;20424;-65
2022/01/27 13:00:48;;;;;;;19.05;9.15;;;0.70;99.90;;;;;;5032281;28;20060;-66
2022/01/27 13:03:16;;;;;;;19.95;9.77;;;0.70;99.90;;;;;;5032697;28;20071;-66
2022/01/27 13:05:48;;;;;;;21.50;8.85;;;0.70;99.90;;;;;;5016354;28;20041;-66
2022/01/27 13:08:18;;;;;;;21.67;8.98;;;0.70;99.90;;;;;;5032523;28;20049;-66
2022/01/27 13:10:52;;;;;;;19.48;8.90;;;0.70;99.90;;;;;;5031328;28;20064;-66
2022/01/27 13:13:40;;;;;;;20.05;10.05;;;0.80;99.90;;;;;;5031357;28;20045;-66
2022/01/27 13:16:16;;;;;;;23.17;9.40;;;0.80;99.90;;;;;;5031752;28;20037;-66
2022/01/27 13:19:00;;;;;;;19.90;8.77;;;0.80;99.90;;;;;;5031455;28;20056;-65
2022/01/27 13:21:32;;;;;;;20.70;9.65;;;0.90;99.90;;;;;;5038792;28;20131;-65
2022/01/27 13:24:17;;;;;;;20.08;9.55;;;0.80;99.90;;;;;;5032226;28;20041;-66
2022/01/27 13:26:46;;;;;;;19.70;8.63;;;0.80;99.90;;;;;;5049587;28;20068;-64
2022/01/27 13:29:15;;;;;;;22.65;9.68;;;0.90;99.90;;;;;;5035097;28;20555;-66
2022/01/27 13:31:44;;;;;;;24.65;10.95;;;0.80;99.90;;;;;;5031339;28;20073;-66
2022/01/27 13:34:12;;;;;;;23.70;10.60;;;0.80;99.90;;;;;;5032161;28;20037;-66
2022/01/27 13:36:40;;;;;;;23.05;10.35;;;0.80;99.90;;;;;;5031737;28;20065;-66
2022/01/27 13:41:40;;;;;;;26.40;10.40;;;0.90;99.90;;;;;;5032736;28;20120;-64
2022/01/27 13:44:12;;;;;;;24.42;10.05;;;0.90;99.90;;;;;;5030983;28;20093;-66